createdAt,value
2019-03-31T00:00:10.850Z,6.50
2019-03-31T00:02:41.943Z,6.50
2019-03-31T00:05:11.472Z,6.50
2019-03-31T00:07:40.951Z,6.50
2019-03-31T00:10:10.483Z,6.40
2019-03-31T00:12:39.965Z,6.30
2019-03-31T00:15:09.631Z,6.20
2019-03-31T00:17:39.111Z,6.20
2019-03-31T00:20:08.639Z,6.10
2019-03-31T00:22:38.123Z,6.00
2019-03-31T00:25:07.646Z,5.90
2019-03-31T00:27:37.125Z,5.70
2019-03-31T00:30:06.817Z,5.60
2019-03-31T00:32:36.299Z,5.50
2019-03-31T00:35:05.921Z,5.50
2019-03-31T00:37:35.374Z,5.50
2019-03-31T00:40:06.582Z,5.50
2019-03-31T00:42:36.071Z,5.40
2019-03-31T00:45:08.033Z,5.30
2019-03-31T00:47:37.691Z,5.30
2019-03-31T00:50:08.542Z,5.20
2019-03-31T00:52:38.027Z,5.20
2019-03-31T00:55:07.638Z,5.10
2019-03-31T00:57:37.106Z,5.10
2019-03-31T01:00:09.275Z,5.10
2019-03-31T01:02:40.371Z,5.10
2019-03-31T01:05:10.170Z,5.10
2019-03-31T01:07:39.887Z,5.00
2019-03-31T01:10:09.587Z,5.00
2019-03-31T01:12:39.207Z,5.00
2019-03-31T01:15:13.382Z,5.00
2019-03-31T01:17:44.676Z,4.90
2019-03-31T01:20:14.134Z,5.00
2019-03-31T01:22:43.611Z,5.00
2019-03-31T01:25:13.610Z,5.10
2019-03-31T01:27:43.604Z,5.10
2019-03-31T01:30:14.966Z,5.00
2019-03-31T01:32:44.467Z,5.00
2019-03-31T01:35:14.138Z,5.00
2019-03-31T01:37:43.614Z,4.90
2019-03-31T01:40:13.548Z,4.90
2019-03-31T01:42:43.075Z,5.00
2019-03-31T01:45:12.767Z,5.10
2019-03-31T01:47:42.224Z,5.30
2019-03-31T01:50:14.291Z,5.40
2019-03-31T01:52:43.743Z,5.30
2019-03-31T01:55:13.302Z,5.30
2019-03-31T01:57:42.754Z,5.10
2019-03-31T02:00:17.430Z,5.10
2019-03-31T02:02:47.107Z,5.00
2019-03-31T02:05:16.591Z,4.90
2019-03-31T02:07:46.066Z,4.90
2019-03-31T02:10:15.566Z,4.90
2019-03-31T02:12:45.023Z,5.00
2019-03-31T02:15:14.506Z,4.90
2019-03-31T02:17:43.976Z,5.00
2019-03-31T02:20:13.453Z,4.90
2019-03-31T02:22:42.999Z,4.90
2019-03-31T02:25:12.480Z,4.80
2019-03-31T02:27:42.034Z,4.70
2019-03-31T02:30:11.955Z,4.80
2019-03-31T02:32:41.413Z,5.10
2019-03-31T02:35:11.233Z,5.30
2019-03-31T02:37:40.701Z,5.50
2019-03-31T02:40:10.524Z,5.50
2019-03-31T02:42:41.055Z,5.50
2019-03-31T02:45:10.772Z,5.60
2019-03-31T02:47:40.255Z,5.60
2019-03-31T02:50:10.271Z,5.90
2019-03-31T02:52:39.811Z,6.10
2019-03-31T02:55:09.361Z,6.40
2019-03-31T02:57:39.572Z,6.50
2019-03-31T03:00:09.199Z,6.60
2019-03-31T03:02:42.603Z,6.60
2019-03-31T03:05:19.390Z,6.50
2019-03-31T03:07:45.135Z,6.40
2019-03-31T03:10:14.640Z,6.30
2019-03-31T03:12:47.127Z,6.20
2019-03-31T03:15:19.684Z,6.10
2019-03-31T03:17:49.219Z,6.00
2019-03-31T03:20:18.696Z,5.90
2019-03-31T03:22:48.155Z,5.80
2019-03-31T03:25:17.635Z,5.70
2019-03-31T03:27:47.101Z,5.70
2019-03-31T03:30:16.604Z,5.70
2019-03-31T03:33:12.179Z,5.70
2019-03-31T03:35:17.165Z,5.60
2019-03-31T03:37:46.624Z,5.60
2019-03-31T03:40:16.132Z,5.70
2019-03-31T03:42:45.589Z,5.60
2019-03-31T03:45:15.092Z,5.50
2019-03-31T03:47:44.563Z,5.50
2019-03-31T03:50:14.065Z,5.50
2019-03-31T03:52:44.580Z,5.40
2019-03-31T03:55:14.068Z,5.30
2019-03-31T03:57:43.543Z,5.20
2019-03-31T04:00:13.161Z,5.20
2019-03-31T04:02:42.624Z,5.10
2019-03-31T04:05:12.177Z,5.20
2019-03-31T04:07:41.664Z,5.20
2019-03-31T04:10:43.154Z,5.50
2019-03-31T04:13:12.705Z,5.70
2019-03-31T04:15:42.252Z,5.90
2019-03-31T04:18:11.744Z,6.00
2019-03-31T04:20:41.225Z,6.10
2019-03-31T04:23:10.679Z,6.10
2019-03-31T04:25:40.207Z,6.10
2019-03-31T04:28:09.675Z,6.00
2019-03-31T04:30:39.156Z,5.80
2019-03-31T04:33:08.743Z,5.70
2019-03-31T04:35:38.244Z,5.50
2019-03-31T04:38:07.701Z,5.50
2019-03-31T04:40:37.179Z,5.30
2019-03-31T04:43:06.665Z,5.20
2019-03-31T04:45:36.129Z,5.20
2019-03-31T04:48:05.655Z,5.20
2019-03-31T04:50:35.150Z,5.20
2019-03-31T04:53:04.614Z,5.20
2019-03-31T04:55:34.098Z,5.20
2019-03-31T04:58:03.562Z,5.30
2019-03-31T05:00:33.061Z,5.30
2019-03-31T05:03:02.543Z,5.30
2019-03-31T05:05:32.002Z,5.30
2019-03-31T05:08:01.488Z,5.30
2019-03-31T05:10:30.947Z,5.40
2019-03-31T05:13:00.431Z,5.40
2019-03-31T05:15:29.907Z,5.40
2019-03-31T05:17:59.390Z,5.50
2019-03-31T05:20:28.843Z,5.60
2019-03-31T05:22:58.334Z,5.70
2019-03-31T05:25:27.814Z,5.80
2019-03-31T05:27:57.392Z,5.80
2019-03-31T05:30:26.854Z,5.90
2019-03-31T05:32:56.338Z,5.90
2019-03-31T05:35:27.161Z,6.00
2019-03-31T05:37:56.702Z,6.00
2019-03-31T05:40:26.168Z,5.90
2019-03-31T05:42:55.652Z,5.90
2019-03-31T05:45:25.111Z,5.90
2019-03-31T05:47:55.690Z,5.90
2019-03-31T05:50:25.156Z,6.00
2019-03-31T05:52:55.092Z,6.00
2019-03-31T05:55:24.547Z,6.00
2019-03-31T05:57:54.050Z,6.10
2019-03-31T06:00:38.395Z,6.10
2019-03-31T06:03:07.878Z,6.20
2019-03-31T06:05:37.338Z,6.10
2019-03-31T06:08:06.826Z,6.10
2019-03-31T06:10:36.283Z,6.20
2019-03-31T06:13:05.777Z,6.20
2019-03-31T06:15:35.231Z,6.20
2019-03-31T06:18:04.909Z,6.30
2019-03-31T06:20:34.383Z,6.40
2019-03-31T06:23:03.955Z,6.50
2019-03-31T06:25:33.429Z,6.60
2019-03-31T06:28:02.983Z,6.70
2019-03-31T06:30:32.507Z,6.80
2019-03-31T06:33:01.979Z,6.90
2019-03-31T06:35:31.458Z,7.00
2019-03-31T06:38:00.957Z,7.10
2019-03-31T06:40:30.407Z,7.30
2019-03-31T06:42:59.955Z,7.40
2019-03-31T06:45:29.416Z,7.40
2019-03-31T06:47:58.929Z,7.50
2019-03-31T06:50:28.378Z,7.60
2019-03-31T06:52:57.864Z,7.70
2019-03-31T06:55:27.345Z,7.70
2019-03-31T06:57:56.896Z,7.80
2019-03-31T07:00:26.355Z,7.90
2019-03-31T07:02:55.832Z,7.90
2019-03-31T07:05:25.314Z,8.00
2019-03-31T07:07:54.791Z,8.10
2019-03-31T07:10:24.250Z,8.10
2019-03-31T07:12:53.727Z,8.10
2019-03-31T07:15:23.191Z,8.00
2019-03-31T07:17:52.673Z,8.00
2019-03-31T07:20:22.199Z,7.90
2019-03-31T07:22:51.679Z,7.90
2019-03-31T07:25:21.223Z,8.10
2019-03-31T07:27:50.703Z,8.00
2019-03-31T07:30:21.199Z,8.00
2019-03-31T07:32:50.680Z,8.20
2019-03-31T07:35:20.229Z,8.40
2019-03-31T07:37:49.703Z,8.60
2019-03-31T07:40:21.044Z,8.80
2019-03-31T07:42:51.300Z,8.80
2019-03-31T07:45:22.038Z,8.70
2019-03-31T07:47:51.520Z,8.70
2019-03-31T07:50:21.235Z,8.50
2019-03-31T07:52:50.720Z,8.80
2019-03-31T07:55:20.263Z,9.10
2019-03-31T07:57:50.847Z,9.10
2019-03-31T08:00:23.836Z,9.30
2019-03-31T08:02:53.319Z,9.50
2019-03-31T08:05:32.995Z,9.60
2019-03-31T08:07:53.890Z,9.90
2019-03-31T08:10:23.493Z,9.80
2019-03-31T08:12:52.982Z,9.80
2019-03-31T08:15:22.431Z,9.10
2019-03-31T08:17:51.936Z,9.10
2019-03-31T08:20:21.751Z,9.10
2019-03-31T08:22:51.227Z,9.20
2019-03-31T08:25:20.750Z,9.10
2019-03-31T08:27:50.231Z,9.30
2019-03-31T08:30:20.831Z,9.60
2019-03-31T08:32:50.302Z,9.60
2019-03-31T08:35:19.917Z,9.90
2019-03-31T08:37:49.414Z,9.90
2019-03-31T08:40:19.051Z,9.80
2019-03-31T08:42:48.565Z,9.50
2019-03-31T08:45:18.086Z,9.40
2019-03-31T08:47:47.586Z,9.10
2019-03-31T08:50:18.081Z,8.90
2019-03-31T08:52:47.550Z,8.80
2019-03-31T08:55:17.083Z,8.80
2019-03-31T08:57:46.562Z,8.60
2019-03-31T09:00:27.462Z,8.60
2019-03-31T09:02:56.942Z,8.70
2019-03-31T09:05:26.395Z,8.70
2019-03-31T09:07:55.875Z,9.00
2019-03-31T09:10:25.346Z,9.30
2019-03-31T09:12:54.840Z,9.60
2019-03-31T09:15:24.382Z,9.50
2019-03-31T09:17:54.426Z,9.40
2019-03-31T09:20:24.017Z,9.10
2019-03-31T09:22:53.497Z,9.10
2019-03-31T09:25:22.939Z,9.20
2019-03-31T09:27:52.431Z,9.00
2019-03-31T09:30:21.974Z,8.80
2019-03-31T09:32:51.427Z,8.80
2019-03-31T09:35:20.924Z,8.60
2019-03-31T09:37:50.376Z,8.50
2019-03-31T09:40:19.924Z,8.40
2019-03-31T09:42:49.371Z,8.30
2019-03-31T09:45:19.006Z,8.40
2019-03-31T09:47:48.475Z,8.60
2019-03-31T09:50:18.386Z,8.70
2019-03-31T09:52:47.863Z,8.70
2019-03-31T09:55:17.403Z,8.80
2019-03-31T09:57:46.864Z,9.20
2019-03-31T10:00:31.989Z,9.50
2019-03-31T10:03:01.451Z,9.90
2019-03-31T10:05:30.923Z,10.00
2019-03-31T10:08:00.484Z,9.70
2019-03-31T10:10:31.982Z,9.60
2019-03-31T10:13:02.471Z,10.00
2019-03-31T10:15:31.954Z,10.10
2019-03-31T10:18:01.491Z,10.30
2019-03-31T10:20:32.032Z,10.60
2019-03-31T10:23:01.491Z,10.70
2019-03-31T10:25:32.062Z,10.70
2019-03-31T10:28:01.515Z,10.30
2019-03-31T10:30:39.258Z,10.30
2019-03-31T10:33:10.254Z,10.40
2019-03-31T10:35:39.744Z,10.60
2019-03-31T10:38:09.339Z,11.50
2019-03-31T10:40:38.887Z,12.30
2019-03-31T10:43:08.361Z,12.10
2019-03-31T10:45:37.840Z,11.60
2019-03-31T10:48:19.592Z,11.10
2019-03-31T10:50:38.407Z,11.30
2019-03-31T10:53:07.947Z,11.50
2019-03-31T10:55:37.431Z,11.50
2019-03-31T10:58:07.163Z,11.00
2019-03-31T11:00:37.704Z,11.10
2019-03-31T11:03:07.814Z,11.50
2019-03-31T11:05:37.354Z,11.80
2019-03-31T11:08:07.167Z,11.90
2019-03-31T11:10:36.803Z,12.20
2019-03-31T11:13:06.601Z,12.20
2019-03-31T11:15:36.096Z,11.90
2019-03-31T11:18:05.683Z,11.60
2019-03-31T11:20:35.229Z,11.40
2019-03-31T11:23:17.888Z,11.20
2019-03-31T11:25:47.424Z,11.90
2019-03-31T11:28:16.903Z,12.00
2019-03-31T11:30:46.378Z,11.40
2019-03-31T11:33:15.835Z,11.60
2019-03-31T11:35:45.320Z,11.70
2019-03-31T11:38:14.771Z,12.10
2019-03-31T11:40:44.319Z,12.60
2019-03-31T11:43:13.767Z,12.70
2019-03-31T11:45:43.286Z,12.30
2019-03-31T11:48:12.739Z,12.20
2019-03-31T11:50:42.235Z,12.40
2019-03-31T11:53:11.710Z,12.70
2019-03-31T11:55:41.273Z,12.90
2019-03-31T11:58:10.728Z,12.20
2019-03-31T12:00:41.867Z,11.80
2019-03-31T12:03:11.323Z,11.20
2019-03-31T12:05:40.797Z,11.20
2019-03-31T12:08:10.315Z,11.50
2019-03-31T12:10:39.815Z,12.00
2019-03-31T12:13:09.268Z,12.80
2019-03-31T12:15:38.810Z,13.80
2019-03-31T12:18:08.290Z,13.60
2019-03-31T12:20:37.801Z,13.70
2019-03-31T12:23:07.319Z,13.90
2019-03-31T12:25:36.801Z,13.60
2019-03-31T12:28:06.251Z,13.20
2019-03-31T12:30:35.737Z,12.70
2019-03-31T12:33:05.218Z,12.90
2019-03-31T12:35:35.829Z,13.20
2019-03-31T12:38:05.279Z,14.30
2019-03-31T12:40:36.574Z,15.50
2019-03-31T12:43:07.022Z,15.30
2019-03-31T12:45:36.497Z,14.00
2019-03-31T12:48:06.133Z,12.80
2019-03-31T12:50:35.606Z,12.40
2019-03-31T12:53:05.254Z,12.90
2019-03-31T12:55:34.707Z,12.90
2019-03-31T12:58:04.189Z,12.90
2019-03-31T13:00:33.645Z,12.60
2019-03-31T13:03:03.135Z,12.60
2019-03-31T13:05:32.602Z,13.40
2019-03-31T13:08:02.076Z,13.90
2019-03-31T13:10:31.554Z,13.90
2019-03-31T13:13:01.095Z,13.50
2019-03-31T13:15:30.574Z,13.50
2019-03-31T13:18:00.062Z,13.60
2019-03-31T13:20:30.579Z,13.00
2019-03-31T13:23:00.077Z,12.90
2019-03-31T13:25:29.531Z,12.90
2019-03-31T13:27:59.026Z,13.00
2019-03-31T13:30:28.476Z,13.20
2019-03-31T13:32:57.944Z,13.80
2019-03-31T13:35:27.403Z,13.00
2019-03-31T13:38:09.958Z,12.30
2019-03-31T13:40:27.978Z,12.00
2019-03-31T13:42:57.474Z,12.00
2019-03-31T13:45:26.946Z,12.00
2019-03-31T13:47:58.738Z,12.10
2019-03-31T13:50:29.241Z,12.90
2019-03-31T13:52:58.739Z,13.70
2019-03-31T13:55:28.226Z,13.70
2019-03-31T13:57:58.358Z,13.90
2019-03-31T14:00:36.872Z,13.00
2019-03-31T14:03:06.719Z,12.20
2019-03-31T14:05:36.247Z,12.40
2019-03-31T14:08:06.023Z,13.30
2019-03-31T14:10:36.538Z,13.60
2019-03-31T14:13:06.103Z,13.10
2019-03-31T14:15:35.554Z,12.70
2019-03-31T14:18:05.169Z,12.50
2019-03-31T14:20:34.755Z,12.70
2019-03-31T14:23:04.323Z,13.10
2019-03-31T14:25:33.794Z,13.80
2019-03-31T14:28:03.334Z,14.20
2019-03-31T14:30:32.787Z,14.30
2019-03-31T14:33:02.340Z,14.10
2019-03-31T14:35:31.810Z,14.40
2019-03-31T14:38:01.283Z,13.90
2019-03-31T14:40:30.767Z,12.80
2019-03-31T14:43:00.236Z,13.30
2019-03-31T14:45:36.018Z,13.90
2019-03-31T14:48:06.608Z,14.60
2019-03-31T14:50:37.706Z,14.10
2019-03-31T14:53:07.725Z,13.50
2019-03-31T14:55:37.438Z,13.60
2019-03-31T14:58:08.188Z,13.50
2019-03-31T15:00:38.102Z,12.90
2019-03-31T15:03:07.582Z,13.00
2019-03-31T15:05:37.095Z,13.30
2019-03-31T15:08:06.574Z,13.90
2019-03-31T15:10:36.027Z,14.10
2019-03-31T15:13:06.571Z,14.30
2019-03-31T15:15:36.048Z,14.40
2019-03-31T15:18:05.538Z,14.30
2019-03-31T15:20:34.985Z,14.50
2019-03-31T15:23:04.750Z,14.90
2019-03-31T15:25:34.339Z,14.90
2019-03-31T15:28:03.884Z,14.60
2019-03-31T15:30:33.349Z,14.60
2019-03-31T15:33:02.845Z,14.80
2019-03-31T15:35:32.310Z,15.00
2019-03-31T15:38:01.778Z,14.80
2019-03-31T15:40:31.240Z,15.10
2019-03-31T15:43:00.740Z,15.40
2019-03-31T15:45:30.323Z,15.60
2019-03-31T15:47:59.853Z,15.00
2019-03-31T15:50:29.311Z,14.90
2019-03-31T15:52:58.806Z,14.30
2019-03-31T15:55:28.256Z,14.00
2019-03-31T15:57:57.805Z,13.90
2019-03-31T16:00:27.263Z,13.40
2019-03-31T16:02:56.839Z,13.20
2019-03-31T16:05:26.355Z,13.10
2019-03-31T16:07:55.925Z,13.40
2019-03-31T16:10:25.394Z,13.20
2019-03-31T16:12:54.921Z,13.00
2019-03-31T16:15:24.396Z,12.90
2019-03-31T16:17:53.852Z,12.80
2019-03-31T16:20:23.415Z,12.40
2019-03-31T16:23:14.626Z,12.80
2019-03-31T16:25:45.734Z,13.10
2019-03-31T16:28:15.210Z,13.50
2019-03-31T16:30:44.675Z,13.70
2019-03-31T16:33:14.183Z,13.70
2019-03-31T16:35:43.633Z,13.80
2019-03-31T16:38:14.178Z,14.10
2019-03-31T16:40:43.654Z,14.30
2019-03-31T16:43:13.127Z,14.20
2019-03-31T16:45:42.614Z,13.60
2019-03-31T16:48:12.087Z,13.10
2019-03-31T16:50:41.573Z,13.20
2019-03-31T16:53:11.020Z,13.50
2019-03-31T16:55:40.514Z,13.20
2019-03-31T16:58:09.989Z,13.10
2019-03-31T17:00:39.470Z,13.00
2019-03-31T17:03:08.956Z,13.00
2019-03-31T17:05:38.438Z,12.80
2019-03-31T17:08:07.889Z,12.40
2019-03-31T17:10:37.366Z,12.40
2019-03-31T17:13:06.823Z,12.20
2019-03-31T17:15:36.300Z,12.00
2019-03-31T17:18:05.843Z,11.80
2019-03-31T17:20:35.340Z,11.70
2019-03-31T17:23:04.806Z,11.60
2019-03-31T17:25:34.283Z,11.30
2019-03-31T17:28:03.749Z,11.10
2019-03-31T17:30:33.216Z,10.80
2019-03-31T17:33:02.690Z,10.30
2019-03-31T17:35:32.167Z,10.10
2019-03-31T17:38:01.634Z,9.70
2019-03-31T17:40:31.119Z,9.40
2019-03-31T17:43:00.589Z,9.10
2019-03-31T17:45:31.107Z,8.70
2019-03-31T17:48:00.851Z,8.50
2019-03-31T17:50:30.370Z,8.20
2019-03-31T17:52:59.822Z,8.10
2019-03-31T17:55:29.326Z,8.00
2019-03-31T17:57:58.777Z,7.90
2019-03-31T18:00:28.235Z,7.80
2019-03-31T18:02:57.705Z,7.70
2019-03-31T18:05:27.199Z,7.50
2019-03-31T18:07:56.910Z,7.40
2019-03-31T18:10:26.406Z,7.30
2019-03-31T18:12:55.923Z,7.10
2019-03-31T18:15:25.398Z,6.90
2019-03-31T18:17:54.849Z,6.70
2019-03-31T18:20:24.327Z,6.70
2019-03-31T18:22:53.772Z,6.90
2019-03-31T18:25:25.966Z,7.00
2019-03-31T18:27:56.499Z,7.00
2019-03-31T18:30:25.987Z,6.90
2019-03-31T18:32:55.454Z,6.80
2019-03-31T18:35:24.927Z,6.60
2019-03-31T18:37:54.375Z,6.50
2019-03-31T18:40:34.761Z,6.60
2019-03-31T18:42:56.075Z,6.50
2019-03-31T18:45:25.546Z,6.40
2019-03-31T18:47:55.002Z,6.30
2019-03-31T18:50:24.495Z,6.20
2019-03-31T18:52:54.030Z,6.10
2019-03-31T18:55:28.104Z,6.10
2019-03-31T18:57:59.213Z,6.20
2019-03-31T19:00:30.324Z,6.00
2019-03-31T19:03:01.431Z,6.00
2019-03-31T19:05:48.847Z,5.90
2019-03-31T19:08:25.965Z,5.80
2019-03-31T19:11:06.031Z,5.80
2019-03-31T19:13:55.135Z,5.80
2019-03-31T19:16:33.490Z,5.60
2019-03-31T19:19:04.594Z,5.60
2019-03-31T19:21:50.714Z,5.70
2019-03-31T19:24:34.042Z,5.80
2019-03-31T19:27:21.647Z,5.70
2019-03-31T19:30:09.050Z,5.40
2019-03-31T19:32:40.171Z,5.50
2019-03-31T19:35:15.146Z,5.30
2019-03-31T19:37:47.323Z,5.20
2019-03-31T19:40:30.710Z,5.20
2019-03-31T19:43:04.275Z,5.20
2019-03-31T19:45:41.438Z,5.10
2019-03-31T19:48:28.734Z,5.10
2019-03-31T19:51:05.423Z,4.90
2019-03-31T19:53:52.710Z,4.80
2019-03-31T19:56:35.831Z,4.60
2019-03-31T19:59:26.225Z,4.40
2019-03-31T20:01:57.336Z,4.30
2019-03-31T20:04:43.679Z,4.10
2019-03-31T20:07:14.882Z,4.10
2019-03-31T20:09:46.045Z,4.00
2019-03-31T20:12:25.751Z,3.90
2019-03-31T20:15:13.292Z,3.90
2019-03-31T20:17:59.706Z,3.80
2019-03-31T20:20:49.090Z,3.80
2019-03-31T20:23:36.518Z,3.70
2019-03-31T20:26:07.602Z,3.60
2019-03-31T20:28:44.202Z,3.40
2019-03-31T20:31:33.415Z,3.40
2019-03-31T20:34:04.510Z,3.30
2019-03-31T20:36:53.519Z,3.30
2019-03-31T20:39:28.682Z,3.30
2019-03-31T20:42:02.730Z,3.30
2019-03-31T20:44:32.178Z,3.20
2019-03-31T20:47:01.661Z,3.10
2019-03-31T20:49:31.114Z,3.00
2019-03-31T20:52:00.588Z,3.00
2019-03-31T20:54:32.857Z,3.00
2019-03-31T20:57:01.140Z,2.90
2019-03-31T20:59:30.753Z,2.90
2019-03-31T21:02:00.267Z,2.90
2019-03-31T21:04:29.716Z,2.80
2019-03-31T21:06:59.187Z,2.80
2019-03-31T21:09:28.646Z,2.80
2019-03-31T21:11:58.123Z,2.70
2019-03-31T21:14:27.575Z,2.70
2019-03-31T21:16:57.042Z,2.60
2019-03-31T21:19:26.487Z,2.80
2019-03-31T21:21:55.979Z,2.80
2019-03-31T21:24:25.427Z,2.90
2019-03-31T21:26:54.894Z,2.80
2019-03-31T21:29:24.363Z,2.80
2019-03-31T21:31:53.821Z,2.80
2019-03-31T21:34:23.295Z,2.80
2019-03-31T21:36:52.769Z,2.80
2019-03-31T21:39:23.096Z,2.70
2019-03-31T21:41:52.547Z,2.60
2019-03-31T21:44:22.043Z,2.60
2019-03-31T21:46:51.488Z,2.60
2019-03-31T21:49:20.987Z,2.60
2019-03-31T21:51:50.451Z,2.60
2019-03-31T21:54:21.001Z,2.80
2019-03-31T21:56:50.579Z,2.80
2019-03-31T21:59:20.048Z,2.80
2019-03-31T22:01:49.714Z,2.80
2019-03-31T22:04:19.185Z,2.90
2019-03-31T22:06:48.639Z,2.80
2019-03-31T22:09:18.133Z,2.80
2019-03-31T22:11:47.577Z,2.70
2019-03-31T22:14:17.051Z,2.70
2019-03-31T22:16:46.498Z,2.60
2019-03-31T22:19:15.972Z,2.70
2019-03-31T22:21:45.418Z,2.70
2019-03-31T22:24:14.915Z,2.80
2019-03-31T22:26:44.431Z,2.70
2019-03-31T22:29:13.975Z,2.70
2019-03-31T22:31:43.439Z,2.70
2019-03-31T22:34:12.975Z,2.80
2019-03-31T22:36:42.438Z,2.80
2019-03-31T22:39:11.910Z,2.80
2019-03-31T22:41:41.357Z,2.70
2019-03-31T22:44:10.828Z,2.60
2019-03-31T22:46:53.728Z,2.50
2019-03-31T22:49:11.392Z,2.50
2019-03-31T22:51:40.844Z,2.40
2019-03-31T22:54:10.311Z,2.40
2019-03-31T22:56:39.773Z,2.30
2019-03-31T22:59:09.919Z,2.10
2019-03-31T23:01:39.559Z,2.00
2019-03-31T23:04:08.956Z,1.90
2019-03-31T23:06:38.404Z,1.80
2019-03-31T23:09:07.947Z,1.80
2019-03-31T23:11:37.391Z,1.80
2019-03-31T23:14:06.865Z,1.70
2019-03-31T23:16:36.331Z,1.70
2019-03-31T23:19:05.893Z,1.60
2019-03-31T23:21:35.354Z,1.50
2019-03-31T23:24:04.823Z,1.50
2019-03-31T23:26:34.263Z,1.40
2019-03-31T23:29:03.757Z,1.30
2019-03-31T23:31:33.208Z,1.30
2019-03-31T23:34:02.683Z,1.20
2019-03-31T23:36:32.134Z,1.10
2019-03-31T23:39:01.614Z,1.20
2019-03-31T23:41:32.331Z,1.10
2019-03-31T23:44:01.832Z,1.10
2019-03-31T23:46:31.282Z,1.10
2019-03-31T23:49:00.749Z,1.00
2019-03-31T23:51:30.215Z,1.00
2019-03-31T23:53:59.708Z,0.90
2019-03-31T23:56:29.170Z,0.90
2019-03-31T23:58:58.667Z,1.00
